sensor_id;sensor_type;location;lat;lon;timestamp;P1;durP1;ratioP1;P2;durP2;ratioP2
15342;SDS011;7771;48.478;8.936;2023-07-09T00:01:15;6.40;;;3.95;;
15342;SDS011;7771;48.478;8.936;2023-07-09T00:03:43;8.00;;;4.20;;
15342;SDS011;7771;48.478;8.936;2023-07-09T00:06:09;6.10;;;4.25;;
15342;SDS011;7771;48.478;8.936;2023-07-09T00:08:35;6.18;;;4.25;;
15342;SDS011;7771;48.478;8.936;2023-07-09T00:11:03;7.70;;;4.55;;
15342;SDS011;7771;48.478;8.936;2023-07-09T00:13:29;5.72;;;4.40;;
15342;SDS011;7771;48.478;8.936;2023-07-09T00:15:58;5.03;;;4.30;;
15342;SDS011;7771;48.478;8.936;2023-07-09T00:18:25;6.45;;;4.35;;
15342;SDS011;7771;48.478;8.936;2023-07-09T00:20:52;4.97;;;4.18;;
15342;SDS011;7771;48.478;8.936;2023-07-09T00:23:18;6.43;;;4.75;;
15342;SDS011;7771;48.478;8.936;2023-07-09T00:25:46;6.72;;;4.50;;
15342;SDS011;7771;48.478;8.936;2023-07-09T00:28:14;7.15;;;5.05;;
15342;SDS011;7771;48.478;8.936;2023-07-09T00:30:41;5.20;;;4.47;;
15342;SDS011;7771;48.478;8.936;2023-07-09T00:33:11;5.80;;;4.60;;
15342;SDS011;7771;48.478;8.936;2023-07-09T00:35:37;7.82;;;4.62;;
15342;SDS011;7771;48.478;8.936;2023-07-09T00:38:08;6.22;;;4.60;;
15342;SDS011;7771;48.478;8.936;2023-07-09T00:40:32;6.43;;;4.25;;
15342;SDS011;7771;48.478;8.936;2023-07-09T00:42:59;6.10;;;4.50;;
15342;SDS011;7771;48.478;8.936;2023-07-09T00:45:26;6.22;;;4.25;;
15342;SDS011;7771;48.478;8.936;2023-07-09T00:47:58;7.93;;;4.55;;
15342;SDS011;7771;48.478;8.936;2023-07-09T00:50:31;6.15;;;4.10;;
15342;SDS011;7771;48.478;8.936;2023-07-09T00:52:58;7.15;;;4.97;;
15342;SDS011;7771;48.478;8.936;2023-07-09T00:55:24;5.93;;;4.87;;
15342;SDS011;7771;48.478;8.936;2023-07-09T00:57:51;5.95;;;4.60;;
15342;SDS011;7771;48.478;8.936;2023-07-09T01:00:18;7.75;;;4.50;;
15342;SDS011;7771;48.478;8.936;2023-07-09T01:02:45;6.12;;;4.53;;
15342;SDS011;7771;48.478;8.936;2023-07-09T01:05:12;7.20;;;4.32;;
15342;SDS011;7771;48.478;8.936;2023-07-09T01:07:41;6.50;;;4.82;;
15342;SDS011;7771;48.478;8.936;2023-07-09T01:10:09;5.35;;;4.00;;
15342;SDS011;7771;48.478;8.936;2023-07-09T01:12:35;10.18;;;4.47;;
15342;SDS011;7771;48.478;8.936;2023-07-09T01:15:03;5.65;;;4.20;;
15342;SDS011;7771;48.478;8.936;2023-07-09T01:17:30;5.45;;;4.12;;
15342;SDS011;7771;48.478;8.936;2023-07-09T01:19:57;7.37;;;4.68;;
15342;SDS011;7771;48.478;8.936;2023-07-09T01:22:25;9.00;;;4.65;;
15342;SDS011;7771;48.478;8.936;2023-07-09T01:24:55;5.65;;;4.85;;
15342;SDS011;7771;48.478;8.936;2023-07-09T01:27:26;5.75;;;4.35;;
15342;SDS011;7771;48.478;8.936;2023-07-09T01:29:53;6.72;;;4.97;;
15342;SDS011;7771;48.478;8.936;2023-07-09T01:32:21;6.65;;;4.53;;
15342;SDS011;7771;48.478;8.936;2023-07-09T01:34:48;6.07;;;4.78;;
15342;SDS011;7771;48.478;8.936;2023-07-09T01:37:18;7.47;;;4.60;;
15342;SDS011;7771;48.478;8.936;2023-07-09T01:39:44;6.18;;;4.40;;
15342;SDS011;7771;48.478;8.936;2023-07-09T01:42:10;5.55;;;4.68;;
15342;SDS011;7771;48.478;8.936;2023-07-09T01:44:38;5.20;;;4.30;;
15342;SDS011;7771;48.478;8.936;2023-07-09T01:47:05;5.87;;;4.30;;
15342;SDS011;7771;48.478;8.936;2023-07-09T01:49:32;7.55;;;5.00;;
15342;SDS011;7771;48.478;8.936;2023-07-09T01:52:00;7.07;;;4.82;;
15342;SDS011;7771;48.478;8.936;2023-07-09T01:54:29;5.97;;;4.72;;
15342;SDS011;7771;48.478;8.936;2023-07-09T01:57:00;5.95;;;4.68;;
15342;SDS011;7771;48.478;8.936;2023-07-09T01:59:21;6.32;;;5.30;;
15342;SDS011;7771;48.478;8.936;2023-07-09T02:01:49;6.30;;;4.87;;
15342;SDS011;7771;48.478;8.936;2023-07-09T02:04:17;8.18;;;5.40;;
15342;SDS011;7771;48.478;8.936;2023-07-09T02:06:45;8.15;;;5.25;;
15342;SDS011;7771;48.478;8.936;2023-07-09T02:09:13;5.03;;;4.53;;
15342;SDS011;7771;48.478;8.936;2023-07-09T02:11:40;5.70;;;4.70;;
15342;SDS011;7771;48.478;8.936;2023-07-09T02:14:07;7.62;;;5.05;;
15342;SDS011;7771;48.478;8.936;2023-07-09T02:16:34;7.43;;;4.70;;
15342;SDS011;7771;48.478;8.936;2023-07-09T02:19:02;5.78;;;4.57;;
15342;SDS011;7771;48.478;8.936;2023-07-09T02:21:28;7.32;;;4.40;;
15342;SDS011;7771;48.478;8.936;2023-07-09T02:23:56;6.37;;;4.40;;
15342;SDS011;7771;48.478;8.936;2023-07-09T02:26:24;6.85;;;4.75;;
15342;SDS011;7771;48.478;8.936;2023-07-09T02:28:51;5.50;;;4.43;;
15342;SDS011;7771;48.478;8.936;2023-07-09T02:31:18;6.20;;;4.50;;
15342;SDS011;7771;48.478;8.936;2023-07-09T02:33:46;7.53;;;4.60;;
15342;SDS011;7771;48.478;8.936;2023-07-09T02:36:13;6.35;;;5.37;;
15342;SDS011;7771;48.478;8.936;2023-07-09T02:38:41;4.97;;;4.45;;
15342;SDS011;7771;48.478;8.936;2023-07-09T02:41:09;7.43;;;5.65;;
15342;SDS011;7771;48.478;8.936;2023-07-09T02:43:37;8.45;;;4.85;;
15342;SDS011;7771;48.478;8.936;2023-07-09T02:46:04;7.50;;;5.35;;
15342;SDS011;7771;48.478;8.936;2023-07-09T02:48:31;5.43;;;4.47;;
15342;SDS011;7771;48.478;8.936;2023-07-09T02:50:57;8.07;;;5.72;;
15342;SDS011;7771;48.478;8.936;2023-07-09T02:53:25;7.68;;;5.00;;
15342;SDS011;7771;48.478;8.936;2023-07-09T02:55:51;7.45;;;4.75;;
15342;SDS011;7771;48.478;8.936;2023-07-09T02:58:19;5.25;;;4.65;;
15342;SDS011;7771;48.478;8.936;2023-07-09T03:00:49;7.00;;;4.95;;
15342;SDS011;7771;48.478;8.936;2023-07-09T03:03:15;7.78;;;5.00;;
15342;SDS011;7771;48.478;8.936;2023-07-09T03:05:45;8.55;;;5.00;;
15342;SDS011;7771;48.478;8.936;2023-07-09T03:08:11;5.90;;;5.18;;
15342;SDS011;7771;48.478;8.936;2023-07-09T03:10:38;6.03;;;4.85;;
15342;SDS011;7771;48.478;8.936;2023-07-09T03:13:05;7.50;;;4.78;;
15342;SDS011;7771;48.478;8.936;2023-07-09T03:15:32;6.03;;;4.93;;
15342;SDS011;7771;48.478;8.936;2023-07-09T03:17:58;5.68;;;4.50;;
15342;SDS011;7771;48.478;8.936;2023-07-09T03:20:26;6.20;;;4.60;;
15342;SDS011;7771;48.478;8.936;2023-07-09T03:22:53;8.07;;;4.90;;
15342;SDS011;7771;48.478;8.936;2023-07-09T03:25:22;7.28;;;5.28;;
15342;SDS011;7771;48.478;8.936;2023-07-09T03:27:48;6.93;;;4.97;;
15342;SDS011;7771;48.478;8.936;2023-07-09T03:30:15;6.70;;;4.68;;
15342;SDS011;7771;48.478;8.936;2023-07-09T03:32:43;6.35;;;4.68;;
15342;SDS011;7771;48.478;8.936;2023-07-09T03:35:09;9.63;;;5.18;;
15342;SDS011;7771;48.478;8.936;2023-07-09T03:37:36;7.62;;;4.62;;
15342;SDS011;7771;48.478;8.936;2023-07-09T03:40:03;10.43;;;5.37;;
15342;SDS011;7771;48.478;8.936;2023-07-09T03:42:30;6.28;;;4.35;;
15342;SDS011;7771;48.478;8.936;2023-07-09T03:44:58;9.20;;;4.90;;
15342;SDS011;7771;48.478;8.936;2023-07-09T03:47:25;9.00;;;4.75;;
15342;SDS011;7771;48.478;8.936;2023-07-09T03:49:53;5.90;;;4.72;;
15342;SDS011;7771;48.478;8.936;2023-07-09T03:52:19;7.68;;;4.43;;
15342;SDS011;7771;48.478;8.936;2023-07-09T03:54:47;6.55;;;5.03;;
15342;SDS011;7771;48.478;8.936;2023-07-09T03:57:13;6.62;;;4.53;;
15342;SDS011;7771;48.478;8.936;2023-07-09T03:59:40;8.23;;;4.93;;
15342;SDS011;7771;48.478;8.936;2023-07-09T04:02:07;6.35;;;4.18;;
15342;SDS011;7771;48.478;8.936;2023-07-09T04:04:34;6.75;;;5.00;;
15342;SDS011;7771;48.478;8.936;2023-07-09T04:07:01;6.65;;;4.70;;
15342;SDS011;7771;48.478;8.936;2023-07-09T04:09:28;5.65;;;4.30;;
15342;SDS011;7771;48.478;8.936;2023-07-09T04:11:55;6.05;;;4.97;;
15342;SDS011;7771;48.478;8.936;2023-07-09T04:14:22;9.40;;;5.75;;
15342;SDS011;7771;48.478;8.936;2023-07-09T04:16:48;6.78;;;4.75;;
15342;SDS011;7771;48.478;8.936;2023-07-09T04:19:17;7.50;;;4.75;;
15342;SDS011;7771;48.478;8.936;2023-07-09T04:21:44;8.00;;;4.97;;
15342;SDS011;7771;48.478;8.936;2023-07-09T04:24:11;7.95;;;5.28;;
15342;SDS011;7771;48.478;8.936;2023-07-09T04:26:38;6.40;;;5.18;;
15342;SDS011;7771;48.478;8.936;2023-07-09T04:29:04;6.18;;;4.78;;
15342;SDS011;7771;48.478;8.936;2023-07-09T04:31:32;8.18;;;5.10;;
15342;SDS011;7771;48.478;8.936;2023-07-09T04:34:01;9.52;;;5.18;;
15342;SDS011;7771;48.478;8.936;2023-07-09T04:36:28;7.40;;;4.70;;
15342;SDS011;7771;48.478;8.936;2023-07-09T04:38:55;6.25;;;5.22;;
15342;SDS011;7771;48.478;8.936;2023-07-09T04:41:23;10.43;;;5.20;;
15342;SDS011;7771;48.478;8.936;2023-07-09T04:43:49;7.15;;;5.25;;
15342;SDS011;7771;48.478;8.936;2023-07-09T04:46:17;5.95;;;5.05;;
15342;SDS011;7771;48.478;8.936;2023-07-09T04:48:45;6.50;;;4.87;;
15342;SDS011;7771;48.478;8.936;2023-07-09T04:51:11;6.32;;;4.40;;
15342;SDS011;7771;48.478;8.936;2023-07-09T04:53:40;6.50;;;5.03;;
15342;SDS011;7771;48.478;8.936;2023-07-09T04:56:06;8.93;;;5.12;;
15342;SDS011;7771;48.478;8.936;2023-07-09T04:58:33;5.25;;;4.70;;
15342;SDS011;7771;48.478;8.936;2023-07-09T05:01:00;9.45;;;4.70;;
15342;SDS011;7771;48.478;8.936;2023-07-09T05:03:28;8.25;;;5.22;;
15342;SDS011;7771;48.478;8.936;2023-07-09T05:05:56;6.53;;;4.90;;
15342;SDS011;7771;48.478;8.936;2023-07-09T05:08:26;8.50;;;5.45;;
15342;SDS011;7771;48.478;8.936;2023-07-09T05:10:53;8.77;;;5.05;;
15342;SDS011;7771;48.478;8.936;2023-07-09T05:13:19;7.60;;;5.20;;
15342;SDS011;7771;48.478;8.936;2023-07-09T05:15:48;5.40;;;4.60;;
15342;SDS011;7771;48.478;8.936;2023-07-09T05:18:14;7.97;;;5.85;;
15342;SDS011;7771;48.478;8.936;2023-07-09T05:20:41;7.65;;;4.80;;
15342;SDS011;7771;48.478;8.936;2023-07-09T05:23:08;8.00;;;4.95;;
15342;SDS011;7771;48.478;8.936;2023-07-09T05:25:34;5.90;;;4.80;;
15342;SDS011;7771;48.478;8.936;2023-07-09T05:28:01;6.25;;;4.97;;
15342;SDS011;7771;48.478;8.936;2023-07-09T05:30:28;8.13;;;5.25;;
15342;SDS011;7771;48.478;8.936;2023-07-09T05:32:55;7.93;;;5.05;;
15342;SDS011;7771;48.478;8.936;2023-07-09T05:35:23;5.90;;;4.82;;
15342;SDS011;7771;48.478;8.936;2023-07-09T05:37:51;7.37;;;5.03;;
15342;SDS011;7771;48.478;8.936;2023-07-09T05:40:19;7.70;;;4.80;;
15342;SDS011;7771;48.478;8.936;2023-07-09T05:42:45;7.82;;;5.22;;
15342;SDS011;7771;48.478;8.936;2023-07-09T05:45:14;7.22;;;5.10;;
15342;SDS011;7771;48.478;8.936;2023-07-09T05:47:41;6.85;;;5.20;;
15342;SDS011;7771;48.478;8.936;2023-07-09T05:50:08;6.93;;;5.15;;
15342;SDS011;7771;48.478;8.936;2023-07-09T05:52:35;8.02;;;4.87;;
15342;SDS011;7771;48.478;8.936;2023-07-09T05:55:02;7.22;;;4.80;;
15342;SDS011;7771;48.478;8.936;2023-07-09T05:57:30;10.85;;;5.45;;
15342;SDS011;7771;48.478;8.936;2023-07-09T05:59:58;7.40;;;5.10;;
15342;SDS011;7771;48.478;8.936;2023-07-09T06:02:24;6.03;;;4.90;;
15342;SDS011;7771;48.478;8.936;2023-07-09T06:04:52;9.40;;;4.90;;
15342;SDS011;7771;48.478;8.936;2023-07-09T06:07:21;5.93;;;4.72;;
15342;SDS011;7771;48.478;8.936;2023-07-09T06:09:46;6.95;;;5.28;;
15342;SDS011;7771;48.478;8.936;2023-07-09T06:12:14;7.50;;;5.32;;
15342;SDS011;7771;48.478;8.936;2023-07-09T06:14:40;6.25;;;5.05;;
15342;SDS011;7771;48.478;8.936;2023-07-09T06:17:07;7.18;;;5.10;;
15342;SDS011;7771;48.478;8.936;2023-07-09T06:19:35;7.78;;;5.07;;
15342;SDS011;7771;48.478;8.936;2023-07-09T06:22:03;7.12;;;4.85;;
15342;SDS011;7771;48.478;8.936;2023-07-09T06:24:31;6.47;;;4.68;;
15342;SDS011;7771;48.478;8.936;2023-07-09T06:26:57;5.10;;;4.60;;
15342;SDS011;7771;48.478;8.936;2023-07-09T06:29:25;7.68;;;5.43;;
15342;SDS011;7771;48.478;8.936;2023-07-09T06:31:52;6.43;;;5.12;;
15342;SDS011;7771;48.478;8.936;2023-07-09T06:34:21;9.27;;;5.43;;
15342;SDS011;7771;48.478;8.936;2023-07-09T06:36:47;6.07;;;5.37;;
15342;SDS011;7771;48.478;8.936;2023-07-09T06:39:16;7.43;;;4.93;;
15342;SDS011;7771;48.478;8.936;2023-07-09T06:41:42;7.97;;;5.93;;
15342;SDS011;7771;48.478;8.936;2023-07-09T06:44:09;8.00;;;5.40;;
15342;SDS011;7771;48.478;8.936;2023-07-09T06:46:38;9.82;;;4.90;;
15342;SDS011;7771;48.478;8.936;2023-07-09T06:49:06;7.32;;;4.53;;
15342;SDS011;7771;48.478;8.936;2023-07-09T06:51:34;5.80;;;4.60;;
15342;SDS011;7771;48.478;8.936;2023-07-09T06:54:00;7.68;;;4.60;;
15342;SDS011;7771;48.478;8.936;2023-07-09T06:56:27;6.47;;;4.90;;
15342;SDS011;7771;48.478;8.936;2023-07-09T06:58:54;6.18;;;4.60;;
15342;SDS011;7771;48.478;8.936;2023-07-09T07:01:21;4.87;;;4.37;;
15342;SDS011;7771;48.478;8.936;2023-07-09T07:03:49;4.53;;;3.97;;
15342;SDS011;7771;48.478;8.936;2023-07-09T07:06:15;7.35;;;4.18;;
15342;SDS011;7771;48.478;8.936;2023-07-09T07:08:42;10.82;;;6.10;;
15342;SDS011;7771;48.478;8.936;2023-07-09T07:11:08;5.30;;;4.03;;
15342;SDS011;7771;48.478;8.936;2023-07-09T07:13:36;4.35;;;3.95;;
15342;SDS011;7771;48.478;8.936;2023-07-09T07:16:04;5.03;;;3.90;;
15342;SDS011;7771;48.478;8.936;2023-07-09T07:18:29;4.53;;;3.85;;
15342;SDS011;7771;48.478;8.936;2023-07-09T07:20:57;4.57;;;3.92;;
15342;SDS011;7771;48.478;8.936;2023-07-09T07:23:24;4.18;;;3.75;;
15342;SDS011;7771;48.478;8.936;2023-07-09T07:25:51;4.80;;;4.10;;
15342;SDS011;7771;48.478;8.936;2023-07-09T07:28:19;4.20;;;3.80;;
15342;SDS011;7771;48.478;8.936;2023-07-09T07:30:45;4.72;;;4.05;;
15342;SDS011;7771;48.478;8.936;2023-07-09T07:33:13;4.12;;;3.37;;
15342;SDS011;7771;48.478;8.936;2023-07-09T07:35:41;4.80;;;3.95;;
15342;SDS011;7771;48.478;8.936;2023-07-09T07:38:08;5.30;;;3.90;;
15342;SDS011;7771;48.478;8.936;2023-07-09T07:40:35;6.00;;;4.15;;
15342;SDS011;7771;48.478;8.936;2023-07-09T07:43:02;4.93;;;4.43;;
15342;SDS011;7771;48.478;8.936;2023-07-09T07:45:29;4.15;;;3.75;;
15342;SDS011;7771;48.478;8.936;2023-07-09T07:47:55;5.37;;;4.18;;
15342;SDS011;7771;48.478;8.936;2023-07-09T07:50:22;4.93;;;4.43;;
15342;SDS011;7771;48.478;8.936;2023-07-09T07:52:48;4.70;;;4.15;;
15342;SDS011;7771;48.478;8.936;2023-07-09T07:55:15;4.57;;;4.20;;
15342;SDS011;7771;48.478;8.936;2023-07-09T07:57:42;4.95;;;4.12;;
15342;SDS011;7771;48.478;8.936;2023-07-09T08:00:10;4.37;;;3.65;;
15342;SDS011;7771;48.478;8.936;2023-07-09T08:02:37;4.10;;;3.67;;
15342;SDS011;7771;48.478;8.936;2023-07-09T08:05:04;4.22;;;3.83;;
15342;SDS011;7771;48.478;8.936;2023-07-09T08:07:32;4.28;;;3.67;;
15342;SDS011;7771;48.478;8.936;2023-07-09T08:09:59;5.30;;;3.90;;
15342;SDS011;7771;48.478;8.936;2023-07-09T08:12:26;5.12;;;3.67;;
15342;SDS011;7771;48.478;8.936;2023-07-09T08:14:54;4.30;;;3.90;;
15342;SDS011;7771;48.478;8.936;2023-07-09T08:17:20;4.05;;;3.60;;
15342;SDS011;7771;48.478;8.936;2023-07-09T08:19:52;5.87;;;4.00;;
15342;SDS011;7771;48.478;8.936;2023-07-09T08:22:17;5.12;;;3.47;;
15342;SDS011;7771;48.478;8.936;2023-07-09T08:24:43;5.47;;;4.28;;
15342;SDS011;7771;48.478;8.936;2023-07-09T08:27:10;5.12;;;3.97;;
15342;SDS011;7771;48.478;8.936;2023-07-09T08:29:37;5.53;;;4.07;;
15342;SDS011;7771;48.478;8.936;2023-07-09T08:32:06;5.15;;;4.32;;
15342;SDS011;7771;48.478;8.936;2023-07-09T08:34:33;5.37;;;4.00;;
15342;SDS011;7771;48.478;8.936;2023-07-09T08:37:01;5.78;;;4.00;;
15342;SDS011;7771;48.478;8.936;2023-07-09T08:39:27;5.28;;;4.03;;
15342;SDS011;7771;48.478;8.936;2023-07-09T08:41:59;4.07;;;3.58;;
15342;SDS011;7771;48.478;8.936;2023-07-09T08:48:19;8.90;;;3.58;;
15342;SDS011;7771;48.478;8.936;2023-07-09T08:49:54;5.18;;;3.25;;
15342;SDS011;7771;48.478;8.936;2023-07-09T08:52:26;4.32;;;3.60;;
15342;SDS011;7771;48.478;8.936;2023-07-09T08:54:51;4.25;;;3.53;;
15342;SDS011;7771;48.478;8.936;2023-07-09T08:57:21;4.55;;;3.80;;
15342;SDS011;7771;48.478;8.936;2023-07-09T08:59:48;7.05;;;3.65;;
15342;SDS011;7771;48.478;8.936;2023-07-09T09:02:21;6.12;;;3.53;;
15342;SDS011;7771;48.478;8.936;2023-07-09T09:04:43;4.37;;;3.70;;
15342;SDS011;7771;48.478;8.936;2023-07-09T09:07:16;5.00;;;3.37;;
15342;SDS011;7771;48.478;8.936;2023-07-09T09:09:43;4.55;;;3.35;;
15342;SDS011;7771;48.478;8.936;2023-07-09T09:12:14;4.30;;;3.20;;
15342;SDS011;7771;48.478;8.936;2023-07-09T09:14:46;4.37;;;3.37;;
15342;SDS011;7771;48.478;8.936;2023-07-09T09:17:14;4.57;;;3.70;;
15342;SDS011;7771;48.478;8.936;2023-07-09T09:19:52;4.60;;;3.10;;
15342;SDS011;7771;48.478;8.936;2023-07-09T09:22:21;3.78;;;3.22;;
15342;SDS011;7771;48.478;8.936;2023-07-09T09:25:03;5.15;;;3.00;;
15342;SDS011;7771;48.478;8.936;2023-07-09T09:27:30;4.57;;;3.35;;
15342;SDS011;7771;48.478;8.936;2023-07-09T09:29:58;3.67;;;3.05;;
15342;SDS011;7771;48.478;8.936;2023-07-09T09:32:27;4.82;;;3.20;;
15342;SDS011;7771;48.478;8.936;2023-07-09T09:34:54;4.43;;;3.20;;
15342;SDS011;7771;48.478;8.936;2023-07-09T09:37:24;4.43;;;3.03;;
15342;SDS011;7771;48.478;8.936;2023-07-09T09:39:52;5.68;;;3.15;;
15342;SDS011;7771;48.478;8.936;2023-07-09T09:42:19;4.22;;;2.87;;
15342;SDS011;7771;48.478;8.936;2023-07-09T09:44:46;4.53;;;3.58;;
15342;SDS011;7771;48.478;8.936;2023-07-09T09:47:13;4.75;;;3.35;;
15342;SDS011;7771;48.478;8.936;2023-07-09T09:49:42;5.87;;;4.07;;
15342;SDS011;7771;48.478;8.936;2023-07-09T09:52:13;5.18;;;3.67;;
15342;SDS011;7771;48.478;8.936;2023-07-09T09:54:41;4.53;;;3.53;;
15342;SDS011;7771;48.478;8.936;2023-07-09T09:59:41;4.72;;;3.50;;
15342;SDS011;7771;48.478;8.936;2023-07-09T10:02:16;3.67;;;3.37;;
15342;SDS011;7771;48.478;8.936;2023-07-09T10:04:45;4.70;;;3.35;;
15342;SDS011;7771;48.478;8.936;2023-07-09T10:07:14;4.00;;;3.40;;
15342;SDS011;7771;48.478;8.936;2023-07-09T10:12:15;7.35;;;5.40;;
15342;SDS011;7771;48.478;8.936;2023-07-09T10:14:58;10.13;;;6.15;;
15342;SDS011;7771;48.478;8.936;2023-07-09T10:18:00;5.72;;;3.67;;
15342;SDS011;7771;48.478;8.936;2023-07-09T10:20:14;8.23;;;5.65;;
15342;SDS011;7771;48.478;8.936;2023-07-09T10:22:39;5.10;;;3.85;;
15342;SDS011;7771;48.478;8.936;2023-07-09T10:25:10;4.95;;;3.20;;
15342;SDS011;7771;48.478;8.936;2023-07-09T10:27:40;3.90;;;3.45;;
15342;SDS011;7771;48.478;8.936;2023-07-09T10:30:13;4.50;;;3.30;;
15342;SDS011;7771;48.478;8.936;2023-07-09T10:33:12;4.97;;;3.53;;
15342;SDS011;7771;48.478;8.936;2023-07-09T10:35:37;3.47;;;2.70;;
15342;SDS011;7771;48.478;8.936;2023-07-09T10:38:08;5.05;;;3.30;;
15342;SDS011;7771;48.478;8.936;2023-07-09T10:40:34;5.37;;;3.15;;
15342;SDS011;7771;48.478;8.936;2023-07-09T10:43:00;17.90;;;7.60;;
15342;SDS011;7771;48.478;8.936;2023-07-09T10:45:28;4.55;;;3.67;;
15342;SDS011;7771;48.478;8.936;2023-07-09T10:47:57;3.92;;;3.20;;
15342;SDS011;7771;48.478;8.936;2023-07-09T10:50:27;4.30;;;3.00;;
15342;SDS011;7771;48.478;8.936;2023-07-09T10:52:54;3.30;;;3.00;;
15342;SDS011;7771;48.478;8.936;2023-07-09T10:55:25;4.37;;;2.95;;
15342;SDS011;7771;48.478;8.936;2023-07-09T10:58:04;5.68;;;3.28;;
15342;SDS011;7771;48.478;8.936;2023-07-09T11:00:35;6.07;;;4.43;;
15342;SDS011;7771;48.478;8.936;2023-07-09T11:03:03;5.03;;;3.33;;
15342;SDS011;7771;48.478;8.936;2023-07-09T11:05:29;4.57;;;3.37;;
15342;SDS011;7771;48.478;8.936;2023-07-09T11:08:14;3.80;;;3.12;;
15342;SDS011;7771;48.478;8.936;2023-07-09T11:10:41;3.12;;;2.72;;
15342;SDS011;7771;48.478;8.936;2023-07-09T11:13:11;6.75;;;3.12;;
15342;SDS011;7771;48.478;8.936;2023-07-09T11:15:38;6.05;;;3.60;;
15342;SDS011;7771;48.478;8.936;2023-07-09T11:18:05;3.45;;;2.92;;
15342;SDS011;7771;48.478;8.936;2023-07-09T11:20:34;5.28;;;3.58;;
15342;SDS011;7771;48.478;8.936;2023-07-09T11:23:04;4.15;;;3.12;;
15342;SDS011;7771;48.478;8.936;2023-07-09T11:25:39;4.07;;;3.37;;
15342;SDS011;7771;48.478;8.936;2023-07-09T11:28:02;4.50;;;2.78;;
15342;SDS011;7771;48.478;8.936;2023-07-09T11:30:28;6.45;;;3.03;;
15342;SDS011;7771;48.478;8.936;2023-07-09T11:32:58;3.97;;;3.10;;
15342;SDS011;7771;48.478;8.936;2023-07-09T11:35:26;4.35;;;2.90;;
15342;SDS011;7771;48.478;8.936;2023-07-09T11:37:52;4.30;;;3.08;;
15342;SDS011;7771;48.478;8.936;2023-07-09T11:40:20;4.45;;;3.00;;
15342;SDS011;7771;48.478;8.936;2023-07-09T11:42:50;7.05;;;4.00;;
15342;SDS011;7771;48.478;8.936;2023-07-09T11:45:20;5.35;;;3.15;;
15342;SDS011;7771;48.478;8.936;2023-07-09T11:47:47;3.80;;;2.80;;
15342;SDS011;7771;48.478;8.936;2023-07-09T11:50:15;4.72;;;3.60;;
15342;SDS011;7771;48.478;8.936;2023-07-09T11:52:45;4.30;;;3.08;;
15342;SDS011;7771;48.478;8.936;2023-07-09T11:55:20;2.87;;;2.62;;
15342;SDS011;7771;48.478;8.936;2023-07-09T11:57:55;5.80;;;3.28;;
15342;SDS011;7771;48.478;8.936;2023-07-09T12:00:21;3.15;;;2.67;;
15342;SDS011;7771;48.478;8.936;2023-07-09T12:02:49;5.03;;;2.78;;
15342;SDS011;7771;48.478;8.936;2023-07-09T12:05:18;4.72;;;2.95;;
15342;SDS011;7771;48.478;8.936;2023-07-09T12:07:43;4.60;;;3.33;;
15342;SDS011;7771;48.478;8.936;2023-07-09T12:10:16;5.85;;;3.30;;
15342;SDS011;7771;48.478;8.936;2023-07-09T12:12:46;3.95;;;2.85;;
15342;SDS011;7771;48.478;8.936;2023-07-09T12:15:16;6.45;;;2.92;;
15342;SDS011;7771;48.478;8.936;2023-07-09T12:17:41;4.00;;;3.00;;
15342;SDS011;7771;48.478;8.936;2023-07-09T12:20:10;4.68;;;3.15;;
15342;SDS011;7771;48.478;8.936;2023-07-09T12:22:39;3.37;;;3.05;;
15342;SDS011;7771;48.478;8.936;2023-07-09T12:25:07;5.18;;;3.53;;
15342;SDS011;7771;48.478;8.936;2023-07-09T12:27:33;5.20;;;2.72;;
15342;SDS011;7771;48.478;8.936;2023-07-09T12:30:00;4.00;;;2.85;;
15342;SDS011;7771;48.478;8.936;2023-07-09T12:32:28;5.07;;;3.47;;
15342;SDS011;7771;48.478;8.936;2023-07-09T12:34:55;3.58;;;2.90;;
15342;SDS011;7771;48.478;8.936;2023-07-09T12:37:21;3.22;;;2.83;;
15342;SDS011;7771;48.478;8.936;2023-07-09T12:39:49;3.90;;;3.10;;
15342;SDS011;7771;48.478;8.936;2023-07-09T12:42:17;3.00;;;2.65;;
15342;SDS011;7771;48.478;8.936;2023-07-09T12:44:43;5.22;;;3.10;;
15342;SDS011;7771;48.478;8.936;2023-07-09T12:47:12;4.62;;;3.20;;
15342;SDS011;7771;48.478;8.936;2023-07-09T12:49:38;4.53;;;2.58;;
15342;SDS011;7771;48.478;8.936;2023-07-09T12:52:09;4.00;;;2.62;;
15342;SDS011;7771;48.478;8.936;2023-07-09T12:54:34;5.40;;;2.80;;
15342;SDS011;7771;48.478;8.936;2023-07-09T12:57:01;6.18;;;3.15;;
15342;SDS011;7771;48.478;8.936;2023-07-09T12:59:36;3.45;;;2.80;;
15342;SDS011;7771;48.478;8.936;2023-07-09T13:01:57;3.75;;;2.95;;
15342;SDS011;7771;48.478;8.936;2023-07-09T13:04:28;3.90;;;2.83;;
15342;SDS011;7771;48.478;8.936;2023-07-09T13:06:53;5.00;;;2.87;;
15342;SDS011;7771;48.478;8.936;2023-07-09T13:09:21;4.47;;;2.95;;
15342;SDS011;7771;48.478;8.936;2023-07-09T13:11:48;6.03;;;2.92;;
15342;SDS011;7771;48.478;8.936;2023-07-09T13:14:17;3.75;;;2.60;;
15342;SDS011;7771;48.478;8.936;2023-07-09T13:16:46;7.75;;;3.03;;
15342;SDS011;7771;48.478;8.936;2023-07-09T13:19:13;5.43;;;3.10;;
15342;SDS011;7771;48.478;8.936;2023-07-09T13:21:40;4.70;;;2.55;;
15342;SDS011;7771;48.478;8.936;2023-07-09T13:24:11;4.75;;;2.90;;
15342;SDS011;7771;48.478;8.936;2023-07-09T13:26:40;4.10;;;2.45;;
15342;SDS011;7771;48.478;8.936;2023-07-09T13:29:10;4.68;;;2.60;;
15342;SDS011;7771;48.478;8.936;2023-07-09T13:31:37;3.10;;;2.50;;
15342;SDS011;7771;48.478;8.936;2023-07-09T13:34:07;3.62;;;2.75;;
15342;SDS011;7771;48.478;8.936;2023-07-09T13:36:32;4.45;;;3.05;;
15342;SDS011;7771;48.478;8.936;2023-07-09T13:38:59;3.58;;;2.80;;
15342;SDS011;7771;48.478;8.936;2023-07-09T13:41:25;3.78;;;2.75;;
15342;SDS011;7771;48.478;8.936;2023-07-09T13:43:54;3.83;;;2.60;;
15342;SDS011;7771;48.478;8.936;2023-07-09T13:46:21;4.18;;;2.80;;
15342;SDS011;7771;48.478;8.936;2023-07-09T13:48:47;4.53;;;3.05;;
15342;SDS011;7771;48.478;8.936;2023-07-09T13:51:16;3.58;;;2.75;;
15342;SDS011;7771;48.478;8.936;2023-07-09T13:53:43;3.50;;;2.62;;
15342;SDS011;7771;48.478;8.936;2023-07-09T13:56:11;3.42;;;3.12;;
15342;SDS011;7771;48.478;8.936;2023-07-09T13:58:38;3.10;;;2.50;;
15342;SDS011;7771;48.478;8.936;2023-07-09T14:01:10;4.18;;;2.90;;
15342;SDS011;7771;48.478;8.936;2023-07-09T14:03:35;2.95;;;2.65;;
15342;SDS011;7771;48.478;8.936;2023-07-09T14:06:02;3.15;;;2.60;;
15342;SDS011;7771;48.478;8.936;2023-07-09T14:08:28;4.72;;;2.72;;
15342;SDS011;7771;48.478;8.936;2023-07-09T14:10:57;5.05;;;3.05;;
15342;SDS011;7771;48.478;8.936;2023-07-09T14:13:24;3.65;;;2.55;;
15342;SDS011;7771;48.478;8.936;2023-07-09T14:15:51;5.35;;;2.37;;
15342;SDS011;7771;48.478;8.936;2023-07-09T14:18:18;5.18;;;2.62;;
15342;SDS011;7771;48.478;8.936;2023-07-09T14:20:45;3.87;;;2.58;;
15342;SDS011;7771;48.478;8.936;2023-07-09T14:23:14;3.85;;;2.42;;
15342;SDS011;7771;48.478;8.936;2023-07-09T14:25:40;3.50;;;2.75;;
15342;SDS011;7771;48.478;8.936;2023-07-09T14:28:08;4.57;;;2.55;;
15342;SDS011;7771;48.478;8.936;2023-07-09T14:30:35;3.17;;;2.70;;
15342;SDS011;7771;48.478;8.936;2023-07-09T14:33:02;3.60;;;2.70;;
15342;SDS011;7771;48.478;8.936;2023-07-09T14:35:29;6.03;;;3.05;;
15342;SDS011;7771;48.478;8.936;2023-07-09T14:37:56;5.43;;;2.50;;
15342;SDS011;7771;48.478;8.936;2023-07-09T14:40:23;5.03;;;3.20;;
15342;SDS011;7771;48.478;8.936;2023-07-09T14:42:51;4.35;;;2.83;;
15342;SDS011;7771;48.478;8.936;2023-07-09T14:45:20;2.85;;;2.37;;
15342;SDS011;7771;48.478;8.936;2023-07-09T14:47:46;3.97;;;3.03;;
15342;SDS011;7771;48.478;8.936;2023-07-09T14:50:13;4.00;;;2.97;;
15342;SDS011;7771;48.478;8.936;2023-07-09T14:52:40;4.97;;;2.83;;
15342;SDS011;7771;48.478;8.936;2023-07-09T14:55:07;3.78;;;2.80;;
15342;SDS011;7771;48.478;8.936;2023-07-09T14:57:33;3.75;;;3.33;;
15342;SDS011;7771;48.478;8.936;2023-07-09T15:00:00;4.35;;;2.80;;
15342;SDS011;7771;48.478;8.936;2023-07-09T15:02:30;4.80;;;2.90;;
15342;SDS011;7771;48.478;8.936;2023-07-09T15:05:00;5.40;;;3.50;;
15342;SDS011;7771;48.478;8.936;2023-07-09T15:07:25;4.70;;;2.50;;
15342;SDS011;7771;48.478;8.936;2023-07-09T15:09:55;4.57;;;2.75;;
15342;SDS011;7771;48.478;8.936;2023-07-09T15:12:22;4.43;;;2.60;;